Time;durP1;ratioP1;P1;durP2;ratioP2;P2;SDS_P1;SDS_P2;PMS_P1;PMS_P2;Temp;Humidity;BMP_temperature;BMP_pressure;BME280_temperature;BME280_humidity;BME280_pressure;Samples;Min_cycle;Max_cycle;Signal;HPM_P1;HPM_P2
2021/07/17 07:53:10;;;;;;;55.97;24.23;;;18.50;57.30;;;;;;6254281;22;20446;-75
2021/07/17 10:40:10;;;;;;;;;;;;;;;;;;;;;
2021/07/17 10:43:13;;;;;;;58.80;15.17;;;25.20;22.70;;;;;;6170214;23;20419;-83
2021/07/17 10:45:52;;;;;;;54.07;18.90;;;26.00;23.80;;;;;;6222284;22;20534;-83
2021/07/17 10:48:25;;;;;;;60.90;53.73;;;26.30;21.70;;;;;;6212193;23;20443;-83
2021/07/17 10:50:59;;;;;;;64.80;14.13;;;25.20;22.00;;;;;;6222596;23;20416;-83
2021/07/17 10:54:38;;;;;;;69.57;49.27;;;25.50;23.70;;;;;;6212663;23;20473;-83
2021/07/17 11:00:45;;;;;;;;;;;;;;;;;;;;;
2021/07/17 11:07:48;;;;;;;;;;;;;;;;;;;;;
2021/07/17 11:10:24;;;;;;;53.03;19.57;;;26.00;20.50;;;;;;6078600;22;20416;-86
2021/07/17 11:19:49;;;;;;;51.23;11.80;;;26.20;18.60;;;;;;6224377;23;20400;-85
2021/07/17 11:22:27;;;;;;;52.27;11.40;;;26.50;16.10;;;;;;6065927;23;20807;-84
2021/07/17 11:32:52;;;;;;;;;;;;;;;;;;;;;
2021/07/17 11:35:29;;;;;;;49.77;20.90;;;26.20;16.20;;;;;;6015698;23;20480;-84
2021/07/17 11:42:04;;;;;;;;;;;;;;;;;;;;;
2021/07/17 11:45:06;;;;;;;;;;;;;;;;;;;;;
2021/07/17 12:02:45;;;;;;;51.27;12.53;;;27.00;13.80;;;;;;5920301;24;20455;-85
2021/07/17 12:05:34;;;;;;;46.30;27.43;;;27.10;13.10;;;;;;5990605;24;20181;-88
2021/07/17 12:08:04;;;;;;;50.20;9.80;;;27.00;11.10;;;;;;5980896;23;20427;-85
2021/07/17 12:11:03;;;;;;;;;;;;;;;;;;;;;
2021/07/17 12:13:59;;;;;;;53.53;10.47;;;26.80;12.70;;;;;;5979211;23;20423;-89
2021/07/17 12:16:47;;;;;;;44.57;19.13;;;27.40;15.60;;;;;;6065504;23;20931;-85
2021/07/17 12:19:19;;;;;;;51.87;16.00;;;27.10;13.00;;;;;;6148982;23;20410;-86
2021/07/17 12:21:46;;;;;;;49.60;13.93;;;27.50;14.40;;;;;;6246348;23;20396;-87
2021/07/17 12:24:17;;;;;;;42.60;14.03;;;27.30;15.20;;;;;;6255987;23;20986;-86
2021/07/17 12:29:21;;;;;;;48.10;23.53;;;27.90;10.90;;;;;;6239874;22;20499;-84
2021/07/17 12:31:58;;;;;;;62.37;40.03;;;27.60;9.60;;;;;;6287494;22;20909;-84
2021/07/17 12:34:26;;;;;;;47.57;13.90;;;27.50;11.30;;;;;;6287183;22;20897;-86
2021/07/17 12:36:55;;;;;;;53.23;22.30;;;28.30;9.90;;;;;;6287228;22;20950;-86
2021/07/17 12:39:22;;;;;;;53.73;29.47;;;28.10;9.80;;;;;;6277336;22;20752;-85
2021/07/17 12:41:50;;;;;;;49.67;9.23;;;28.10;8.90;;;;;;6276809;22;20398;-85
2021/07/17 12:44:19;;;;;;;53.77;13.20;;;28.50;11.10;;;;;;6275918;22;20430;-86
2021/07/17 12:46:48;;;;;;;65.90;41.63;;;28.30;13.10;;;;;;6277218;22;20383;-84
2021/07/17 12:49:16;;;;;;;61.20;46.73;;;27.70;10.80;;;;;;6287185;22;20437;-85
2021/07/17 12:51:46;;;;;;;86.10;78.43;;;27.70;10.30;;;;;;6287097;22;20762;-86
2021/07/17 12:54:16;;;;;;;51.87;16.10;;;27.30;12.60;;;;;;6276680;22;20398;-85
2021/07/17 12:56:46;;;;;;;50.57;8.67;;;27.60;13.70;;;;;;6277379;22;20394;-85
2021/07/17 12:59:15;;;;;;;49.60;9.60;;;28.00;10.00;;;;;;6275303;22;20398;-85
2021/07/17 13:01:47;;;;;;;59.53;48.30;;;27.90;10.60;;;;;;6277121;22;20505;-85
2021/07/17 13:04:15;;;;;;;61.87;37.37;;;27.70;11.10;;;;;;6287255;22;20831;-85
2021/07/17 13:06:57;;;;;;;54.33;24.87;;;27.60;10.10;;;;;;6276880;22;20878;-85
2021/07/17 13:09:27;;;;;;;46.80;20.97;;;27.70;9.60;;;;;;6276625;22;20407;-84
2021/07/17 13:11:56;;;;;;;49.53;8.40;;;27.60;10.60;;;;;;6277115;22;20406;-85
2021/07/17 13:14:41;;;;;;;44.47;19.13;;;27.60;14.20;;;;;;6285424;22;20430;-86
2021/07/17 13:17:14;;;;;;;88.13;80.67;;;28.10;12.30;;;;;;6286989;22;20437;-84
2021/07/17 13:19:43;;;;;;;46.93;14.00;;;27.40;11.00;;;;;;6277050;22;20426;-85
2021/07/17 13:22:16;;;;;;;66.40;21.97;;;27.70;9.60;;;;;;6276856;22;20394;-85
2021/07/17 13:24:45;;;;;;;57.00;21.30;;;27.40;9.40;;;;;;6276587;22;20390;-86
2021/07/17 13:27:20;;;;;;;48.37;13.53;;;27.90;12.00;;;;;;6285522;22;20416;-83
2021/07/17 13:29:48;;;;;;;46.47;15.23;;;28.00;9.80;;;;;;6275998;22;20433;-84
2021/07/17 13:32:33;;;;;;;48.20;11.83;;;28.20;8.70;;;;;;6286761;22;20416;-85
2021/07/17 13:35:20;;;;;;;48.50;14.10;;;28.60;10.10;;;;;;6286687;22;20425;-85
2021/07/17 13:38:09;;;;;;;48.90;16.50;;;28.50;10.50;;;;;;6286525;22;20815;-84
2021/07/17 13:40:39;;;;;;;49.50;13.83;;;28.70;8.50;;;;;;6276536;22;20456;-87
2021/07/17 13:43:09;;;;;;;54.70;20.17;;;29.00;8.60;;;;;;6284936;22;20513;-86
2021/07/17 13:48:12;;;;;;;52.03;13.23;;;28.20;7.00;;;;;;6266307;22;20445;-86
2021/07/17 13:50:44;;;;;;;57.00;13.00;;;28.90;5.70;;;;;;6286466;22;20410;-86
2021/07/17 13:53:17;;;;;;;52.03;21.87;;;28.80;5.90;;;;;;6286594;22;20444;-85
2021/07/17 13:55:46;;;;;;;60.33;35.10;;;28.80;5.00;;;;;;6286390;22;20405;-86
2021/07/17 13:58:15;;;;;;;55.57;14.40;;;29.20;2.60;;;;;;6275068;22;20426;-86
2021/07/17 14:00:51;;;;;;;73.47;57.33;;;29.00;6.20;;;;;;6286834;22;20488;-87
2021/07/17 14:03:25;;;;;;;73.67;64.27;;;28.60;6.80;;;;;;6286390;22;20441;-87
2021/07/17 14:05:54;;;;;;;187.77;174.00;;;28.80;7.50;;;;;;6277108;22;20422;-85
2021/07/17 14:08:22;;;;;;;57.07;20.03;;;28.60;6.20;;;;;;6276207;22;20460;-86
2021/07/17 14:10:50;;;;;;;51.50;19.83;;;28.40;8.30;;;;;;6286606;22;20409;-83
2021/07/17 14:13:16;;;;;;;54.67;25.57;;;28.50;7.70;;;;;;6274428;22;20409;-88
2021/07/17 14:16:25;;;;;;;;;;;;;;;;;;;;;
2021/07/17 14:23:01;;;;;;;;;;;;;;;;;;;;;
2021/07/17 14:41:05;;;;;;;51.57;12.60;;;28.30;5.70;;;;;;5898551;23;20415;-78
2021/07/17 14:43:32;;;;;;;58.07;30.07;;;28.60;6.50;;;;;;6049439;23;20448;-77
2021/07/17 14:45:59;;;;;;;57.93;9.03;;;28.50;6.10;;;;;;6160588;22;20429;-75
2021/07/17 14:48:26;;;;;;;47.60;18.50;;;28.90;8.70;;;;;;6277507;22;20442;-75
2021/07/17 14:50:53;;;;;;;49.97;20.23;;;28.80;5.40;;;;;;6277981;22;20870;-76
2021/07/17 14:53:20;;;;;;;51.77;13.93;;;28.90;6.70;;;;;;6277895;22;20373;-76
2021/07/17 14:55:46;;;;;;;60.57;27.97;;;29.60;2.80;;;;;;6278418;22;20464;-76
2021/07/17 14:58:15;;;;;;;59.53;45.07;;;28.90;2.40;;;;;;6286990;22;20410;-77
2021/07/17 15:00:41;;;;;;;51.93;25.90;;;28.60;2.30;;;;;;6288175;22;20385;-76
2021/07/17 15:03:08;;;;;;;56.03;16.00;;;28.50;4.00;;;;;;6277753;22;20981;-77
2021/07/17 15:05:35;;;;;;;71.30;45.67;;;28.90;4.50;;;;;;6277847;22;20404;-77
2021/07/17 15:08:02;;;;;;;60.03;39.53;;;28.30;5.90;;;;;;6278137;22;20380;-76
2021/07/17 15:10:35;;;;;;;54.37;16.33;;;28.40;8.40;;;;;;6277786;22;20376;-80
2021/07/17 15:13:02;;;;;;;62.60;22.37;;;28.80;4.90;;;;;;6286363;22;20418;-83
2021/07/17 15:15:31;;;;;;;54.33;26.47;;;29.30;2.60;;;;;;6287315;22;20466;-76
2021/07/17 15:17:57;;;;;;;54.70;30.23;;;29.20;3.10;;;;;;6277840;22;20398;-75
2021/07/17 15:20:25;;;;;;;69.03;49.93;;;28.50;2.20;;;;;;6277890;22;20398;-75
2021/07/17 15:22:52;;;;;;;54.73;21.70;;;28.30;6.10;;;;;;6277996;22;20429;-76
2021/07/17 15:25:19;;;;;;;62.00;21.73;;;28.00;5.80;;;;;;6277831;22;20425;-77
2021/07/17 15:27:46;;;;;;;61.63;25.60;;;28.00;6.10;;;;;;6275997;22;20409;-80
2021/07/17 15:30:14;;;;;;;55.20;45.63;;;28.60;2.80;;;;;;6287970;22;20416;-80
2021/07/17 15:32:42;;;;;;;53.67;24.93;;;28.20;3.00;;;;;;6277790;22;20398;-81
2021/07/17 15:35:10;;;;;;;58.83;19.97;;;28.00;4.20;;;;;;6277930;22;20402;-79
2021/07/17 15:37:37;;;;;;;95.37;85.67;;;28.60;5.40;;;;;;6277660;22;20886;-82
2021/07/17 15:40:05;;;;;;;55.10;35.90;;;28.20;5.80;;;;;;6277966;22;20715;-83
2021/07/17 15:42:32;;;;;;;81.27;73.13;;;28.10;6.00;;;;;;6276511;22;20399;-80
2021/07/17 15:44:59;;;;;;;62.27;39.27;;;27.80;5.70;;;;;;6277806;22;20733;-79
2021/07/17 15:47:25;;;;;;;51.23;22.73;;;27.80;6.60;;;;;;6277702;22;20770;-82
2021/07/17 15:49:53;;;;;;;70.03;58.30;;;28.20;6.10;;;;;;6277888;22;20402;-78
2021/07/17 15:52:20;;;;;;;50.30;27.23;;;28.20;4.00;;;;;;6277917;22;20405;-80
2021/07/17 15:54:47;;;;;;;52.83;28.37;;;28.10;4.90;;;;;;6277504;22;20402;-81
2021/07/17 15:57:14;;;;;;;55.67;17.10;;;27.90;6.10;;;;;;6275403;22;20892;-80
2021/07/17 15:59:41;;;;;;;48.97;9.07;;;28.00;5.80;;;;;;6277579;22;20390;-80
2021/07/17 16:02:09;;;;;;;53.63;26.53;;;27.90;8.90;;;;;;6277250;22;20398;-80
2021/07/17 16:04:35;;;;;;;53.17;35.37;;;27.80;5.10;;;;;;6277292;22;20436;-83
2021/07/17 16:07:04;;;;;;;51.27;16.57;;;27.80;4.50;;;;;;6277755;22;20409;-82
2021/07/17 16:09:31;;;;;;;47.37;22.87;;;28.30;5.60;;;;;;6277338;22;20398;-77
2021/07/17 16:11:57;;;;;;;51.93;19.23;;;28.20;4.50;;;;;;6277716;22;20398;-78
2021/07/17 16:14:24;;;;;;;69.13;57.67;;;28.30;3.10;;;;;;6275797;22;20438;-78
2021/07/17 16:16:51;;;;;;;55.47;24.73;;;28.00;2.10;;;;;;6277660;22;20424;-81
2021/07/17 16:19:17;;;;;;;60.70;40.97;;;28.00;3.60;;;;;;6287562;22;20411;-81
2021/07/17 16:21:45;;;;;;;101.33;92.00;;;28.10;5.80;;;;;;6277280;22;20402;-80
2021/07/17 16:24:14;;;;;;;52.63;17.07;;;27.80;4.10;;;;;;6276739;22;20436;-75
2021/07/17 16:26:41;;;;;;;50.97;14.80;;;27.90;5.40;;;;;;6277504;22;20717;-79
2021/07/17 16:29:08;;;;;;;52.80;37.20;;;28.00;5.90;;;;;;6285659;22;20416;-79
2021/07/17 16:31:35;;;;;;;56.07;25.17;;;27.50;4.90;;;;;;6277521;22;20398;-79
2021/07/17 16:34:02;;;;;;;52.07;20.70;;;27.50;6.70;;;;;;6277505;22;20402;-80
2021/07/17 16:36:29;;;;;;;59.70;38.97;;;27.70;5.50;;;;;;6277427;22;20799;-77
2021/07/17 16:38:56;;;;;;;42.87;21.63;;;27.90;4.90;;;;;;6277262;22;20398;-76
2021/07/17 16:41:24;;;;;;;51.17;35.03;;;27.70;3.20;;;;;;6287071;22;20406;-76
2021/07/17 16:43:51;;;;;;;48.63;24.30;;;27.70;2.80;;;;;;6275712;22;20745;-81
2021/07/17 16:46:18;;;;;;;44.37;27.13;;;27.70;2.80;;;;;;6287106;22;20406;-84
2021/07/17 16:48:46;;;;;;;45.77;16.77;;;27.80;4.30;;;;;;6276778;22;20434;-80
2021/07/17 16:51:13;;;;;;;50.40;16.33;;;27.90;4.30;;;;;;6273060;22;20403;-80
2021/07/17 16:53:40;;;;;;;43.77;21.67;;;27.90;4.70;;;;;;6275772;22;20410;-78
2021/07/17 16:56:06;;;;;;;49.43;22.80;;;27.60;3.30;;;;;;6274902;22;20886;-77
2021/07/17 16:58:35;;;;;;;48.90;19.00;;;28.00;3.60;;;;;;6274002;22;20398;-78
2021/07/17 17:01:01;;;;;;;51.07;23.70;;;28.00;4.90;;;;;;6275598;22;20493;-78
2021/07/17 17:03:28;;;;;;;48.03;32.67;;;28.10;1.90;;;;;;6274853;22;20491;-77
2021/07/17 17:05:55;;;;;;;54.70;32.77;;;28.10;1.90;;;;;;6275562;22;20399;-79
2021/07/17 17:08:22;;;;;;;47.20;13.77;;;28.00;1.40;;;;;;6285445;22;20410;-80
2021/07/17 17:10:49;;;;;;;50.87;21.83;;;27.90;1.00;;;;;;6274976;22;20405;-78
2021/07/17 17:13:19;;;;;;;53.43;27.47;;;28.10;2.30;;;;;;6283099;22;20456;-79
2021/07/17 17:15:47;;;;;;;40.00;12.50;;;28.10;2.70;;;;;;6274934;22;20409;-77
2021/07/17 17:18:14;;;;;;;54.93;31.47;;;28.30;1.00;;;;;;6275196;22;20403;-77
2021/07/17 17:20:40;;;;;;;53.63;36.77;;;28.20;1.00;;;;;;6274852;22;20870;-77
2021/07/17 17:23:08;;;;;;;58.57;21.63;;;28.00;1.40;;;;;;6274993;22;20409;-75
2021/07/17 17:25:35;;;;;;;49.23;24.77;;;27.90;1.80;;;;;;6275226;22;20436;-76
2021/07/17 17:28:01;;;;;;;50.47;23.60;;;27.70;2.40;;;;;;6273653;22;20398;-79
2021/07/17 17:30:30;;;;;;;44.33;17.17;;;27.80;2.90;;;;;;6275383;22;20477;-80
2021/07/17 17:32:58;;;;;;;53.03;43.57;;;27.60;1.90;;;;;;6275386;22;20793;-78
2021/07/17 17:35:26;;;;;;;46.20;10.07;;;27.60;2.60;;;;;;6274610;22;20882;-79
2021/07/17 17:37:53;;;;;;;47.70;28.77;;;27.90;3.10;;;;;;6275056;22;20453;-81
2021/07/17 17:40:20;;;;;;;43.63;25.77;;;27.70;2.30;;;;;;6285420;22;20783;-79
2021/07/17 17:42:47;;;;;;;45.53;13.17;;;27.90;2.40;;;;;;6283533;22;20873;-81
2021/07/17 17:45:16;;;;;;;43.70;9.70;;;28.00;3.00;;;;;;6274620;22;20441;-80
2021/07/17 17:47:43;;;;;;;40.60;9.13;;;27.60;1.70;;;;;;6274877;22;20434;-80
2021/07/17 17:50:14;;;;;;;48.83;18.00;;;27.80;2.60;;;;;;6274649;22;20398;-80
2021/07/17 17:52:41;;;;;;;45.97;10.40;;;27.60;1.70;;;;;;6276764;22;20704;-82
2021/07/17 17:55:09;;;;;;;45.10;7.50;;;27.30;4.70;;;;;;6276707;22;20398;-80
2021/07/17 17:57:36;;;;;;;40.20;11.03;;;26.80;5.50;;;;;;6274697;22;20410;-79
2021/07/17 18:00:07;;;;;;;41.37;10.57;;;26.50;6.70;;;;;;6276249;22;20398;-82
2021/07/17 18:02:34;;;;;;;44.10;10.17;;;25.80;7.80;;;;;;6286639;22;20414;-82
2021/07/17 18:05:00;;;;;;;45.37;7.90;;;25.40;8.50;;;;;;6276526;22;20429;-79
2021/07/17 18:07:29;;;;;;;45.70;8.87;;;25.50;10.40;;;;;;6276675;22;20398;-80
2021/07/17 18:09:55;;;;;;;34.60;11.13;;;25.00;11.20;;;;;;6276331;22;20405;-81
2021/07/17 18:12:22;;;;;;;42.63;8.70;;;24.70;10.50;;;;;;6274701;22;20508;-79
2021/07/17 18:14:49;;;;;;;44.77;5.83;;;24.40;10.80;;;;;;6276228;22;20941;-82
2021/07/17 18:17:16;;;;;;;40.83;8.07;;;24.30;13.20;;;;;;6276256;22;20399;-82
2021/07/17 18:19:44;;;;;;;42.43;5.53;;;24.20;11.10;;;;;;6276430;22;20411;-82
2021/07/17 18:22:10;;;;;;;39.80;6.40;;;24.10;14.30;;;;;;6288210;22;20952;-82
2021/07/17 18:24:38;;;;;;;38.10;8.50;;;24.00;14.90;;;;;;6278703;22;20405;-80
2021/07/17 18:30:35;;;;;;;40.03;4.53;;;23.70;14.90;;;;;;6206646;22;20405;-81
2021/07/17 18:33:02;;;;;;;39.00;5.53;;;23.50;14.70;;;;;;6278416;22;20460;-80
2021/07/17 18:35:29;;;;;;;36.53;3.97;;;23.40;15.20;;;;;;6278024;22;20434;-80
2021/07/17 18:37:56;;;;;;;38.40;3.30;;;23.30;16.00;;;;;;6278172;22;20489;-80
2021/07/17 18:40:27;;;;;;;38.47;3.13;;;23.10;17.50;;;;;;6277958;22;20920;-81
2021/07/17 18:42:54;;;;;;;38.80;3.50;;;22.90;18.10;;;;;;6276941;22;20473;-81
2021/07/17 18:45:25;;;;;;;34.47;4.60;;;22.90;18.00;;;;;;6278083;22;20878;-81
2021/07/17 18:47:52;;;;;;;35.13;3.70;;;22.80;17.00;;;;;;6277892;22;20834;-80
2021/07/17 18:50:20;;;;;;;33.87;3.40;;;22.70;16.90;;;;;;6288385;22;20394;-81
2021/07/17 18:52:46;;;;;;;35.00;3.87;;;22.50;17.80;;;;;;6277846;22;20474;-80
2021/07/17 18:55:15;;;;;;;38.20;3.10;;;22.80;17.30;;;;;;6288348;22;20475;-81
2021/07/17 18:57:44;;;;;;;32.90;2.83;;;23.30;16.30;;;;;;6276824;22;20394;-81
2021/07/17 19:00:14;;;;;;;30.97;3.87;;;22.70;18.50;;;;;;6288280;22;20481;-80
2021/07/17 19:02:41;;;;;;;29.60;6.07;;;22.50;18.20;;;;;;6278295;22;20430;-80
2021/07/17 19:05:09;;;;;;;32.77;3.17;;;22.80;17.00;;;;;;6278194;22;20882;-81
2021/07/17 19:14:14;;;;;;;32.93;2.43;;;22.90;17.40;;;;;;6047169;23;20430;-84
2021/07/17 19:16:41;;;;;;;30.37;2.10;;;22.50;19.00;;;;;;6154852;23;20402;-80
2021/07/17 19:19:08;;;;;;;28.23;2.50;;;22.10;20.20;;;;;;6234287;22;20416;-80
2021/07/17 19:21:35;;;;;;;28.27;2.50;;;21.80;21.00;;;;;;6278253;22;20713;-80
2021/07/17 19:24:02;;;;;;;27.90;2.70;;;21.60;20.90;;;;;;6278186;22;20390;-78
2021/07/17 19:26:29;;;;;;;28.00;2.73;;;21.10;23.40;;;;;;6278127;22;20405;-77
2021/07/17 19:28:56;;;;;;;27.53;2.70;;;20.70;25.60;;;;;;6276468;22;20395;-77
2021/07/17 19:31:24;;;;;;;25.03;2.30;;;20.30;27.20;;;;;;6277969;22;20394;-80
2021/07/17 19:33:50;;;;;;;26.10;2.67;;;20.10;27.10;;;;;;6277990;22;20402;-81
2021/07/17 20:33:44;;;;;;;17.50;2.10;;;17.70;46.90;;;;;;5917631;24;20826;-77
2021/07/17 20:36:11;;;;;;;18.20;2.33;;;17.70;46.80;;;;;;6090105;23;20472;-77
2021/07/17 20:38:40;;;;;;;17.80;2.77;;;17.60;47.30;;;;;;6227941;22;20501;-77
2021/07/17 20:41:07;;;;;;;16.87;2.37;;;17.50;48.20;;;;;;6277151;22;20486;-76
2021/07/17 20:43:34;;;;;;;26.07;3.00;;;17.40;49.10;;;;;;6275295;22;20403;-77
2021/07/17 20:46:01;;;;;;;18.47;2.70;;;17.30;50.70;;;;;;6276966;22;20460;-76
